sensor_id;sensor_type;location;lat;lon;timestamp;pressure;altitude;pressure_sealevel;temperature;humidity
79127;BME280;68528;48.814;8.904;2023-04-21T00:01:37;96040.16;;;0.95;93.14
79127;BME280;68528;48.814;8.904;2023-04-21T00:04:04;96043.22;;;1.02;92.98
79127;BME280;68528;48.814;8.904;2023-04-21T00:13:14;96034.41;;;0.79;93.21
79127;BME280;68528;48.814;8.904;2023-04-21T00:15:45;96031.56;;;0.76;92.58
79127;BME280;68528;48.814;8.904;2023-04-21T00:18:15;96023.47;;;0.76;92.86
79127;BME280;68528;48.814;8.904;2023-04-21T00:20:42;96021.56;;;0.76;93.01
79127;BME280;68528;48.814;8.904;2023-04-21T00:23:09;96034.25;;;0.76;92.65
79127;BME280;68528;48.814;8.904;2023-04-21T00:25:40;96036.16;;;0.75;93.23
79127;BME280;68528;48.814;8.904;2023-04-21T00:28:05;96029.34;;;0.78;92.91
79127;BME280;68528;48.814;8.904;2023-04-21T00:30:54;96030.75;;;0.75;93.43
79127;BME280;68528;48.814;8.904;2023-04-21T00:33:20;96026.13;;;0.67;93.24
79127;BME280;68528;48.814;8.904;2023-04-21T00:35:46;96024.66;;;0.61;93.55
79127;BME280;68528;48.814;8.904;2023-04-21T00:38:11;96030.22;;;0.65;93.53
79127;BME280;68528;48.814;8.904;2023-04-21T00:40:41;96011.66;;;0.63;93.02
79127;BME280;68528;48.814;8.904;2023-04-21T00:46:50;96017.03;;;0.63;93.51
79127;BME280;68528;48.814;8.904;2023-04-21T00:49:24;96002.94;;;0.58;93.39
79127;BME280;68528;48.814;8.904;2023-04-21T00:51:51;96007.72;;;0.61;94.13
79127;BME280;68528;48.814;8.904;2023-04-21T00:54:17;96010.41;;;0.61;93.50
79127;BME280;68528;48.814;8.904;2023-04-21T00:56:42;96001.84;;;0.59;94.01
79127;BME280;68528;48.814;8.904;2023-04-21T00:59:08;96014.06;;;0.65;93.68
79127;BME280;68528;48.814;8.904;2023-04-21T01:05:19;96019.91;;;0.58;93.88
79127;BME280;68528;48.814;8.904;2023-04-21T01:07:45;96019.56;;;0.60;93.54
79127;BME280;68528;48.814;8.904;2023-04-21T01:10:10;95994.69;;;0.54;94.36
79127;BME280;68528;48.814;8.904;2023-04-21T01:12:43;96002.13;;;0.57;93.78
79127;BME280;68528;48.814;8.904;2023-04-21T01:15:28;96017.09;;;0.72;95.07
79127;BME280;68528;48.814;8.904;2023-04-21T01:17:55;96010.88;;;0.63;94.37
79127;BME280;68528;48.814;8.904;2023-04-21T01:20:31;96014.03;;;0.56;94.54
79127;BME280;68528;48.814;8.904;2023-04-21T01:22:56;96006.50;;;0.45;94.08
79127;BME280;68528;48.814;8.904;2023-04-21T01:25:28;96010.44;;;0.39;93.86
79127;BME280;68528;48.814;8.904;2023-04-21T01:27:56;95995.69;;;0.36;93.94
79127;BME280;68528;48.814;8.904;2023-04-21T01:30:21;95994.91;;;0.36;94.08
79127;BME280;68528;48.814;8.904;2023-04-21T01:32:52;96005.06;;;0.39;93.88
79127;BME280;68528;48.814;8.904;2023-04-21T01:35:39;95998.53;;;0.31;94.03
79127;BME280;68528;48.814;8.904;2023-04-21T01:38:04;96001.66;;;0.25;93.47
79127;BME280;68528;48.814;8.904;2023-04-21T01:40:44;95997.03;;;0.17;93.82
79127;BME280;68528;48.814;8.904;2023-04-21T01:43:23;96000.00;;;0.15;93.28
79127;BME280;68528;48.814;8.904;2023-04-21T01:45:49;96017.06;;;0.11;93.85
79127;BME280;68528;48.814;8.904;2023-04-21T01:48:15;96011.03;;;0.05;93.94
79127;BME280;68528;48.814;8.904;2023-04-21T01:50:40;96024.16;;;0.07;93.74
79127;BME280;68528;48.814;8.904;2023-04-21T01:53:06;96021.00;;;0.05;93.61
79127;BME280;68528;48.814;8.904;2023-04-21T01:55:36;96021.00;;;0.05;93.95
79127;BME280;68528;48.814;8.904;2023-04-21T01:58:23;96021.63;;;0.02;93.52
79127;BME280;68528;48.814;8.904;2023-04-21T02:00:58;96016.22;;;0.02;94.43
79127;BME280;68528;48.814;8.904;2023-04-21T02:03:24;96017.22;;;0.06;93.73
79127;BME280;68528;48.814;8.904;2023-04-21T02:05:54;96010.06;;;0.01;93.73
79127;BME280;68528;48.814;8.904;2023-04-21T02:08:20;95999.41;;;-0.04;93.54
79127;BME280;68528;48.814;8.904;2023-04-21T02:10:45;96013.97;;;-0.05;93.50
79127;BME280;68528;48.814;8.904;2023-04-21T02:13:11;96006.31;;;-0.12;93.47
79127;BME280;68528;48.814;8.904;2023-04-21T02:15:36;96018.69;;;-0.11;93.50
79127;BME280;68528;48.814;8.904;2023-04-21T02:18:25;96017.69;;;-0.15;93.32
79127;BME280;68528;48.814;8.904;2023-04-21T02:21:11;96014.16;;;-0.24;93.83
79127;BME280;68528;48.814;8.904;2023-04-21T02:23:42;96007.16;;;-0.25;94.06
79127;BME280;68528;48.814;8.904;2023-04-21T02:26:08;96004.91;;;-0.31;93.53
79127;BME280;68528;48.814;8.904;2023-04-21T02:28:33;96013.78;;;-0.31;94.31
79127;BME280;68528;48.814;8.904;2023-04-21T02:30:59;96016.94;;;-0.29;94.54
79127;BME280;68528;48.814;8.904;2023-04-21T02:33:32;96019.53;;;-0.24;94.01
79127;BME280;68528;48.814;8.904;2023-04-21T02:39:32;96013.94;;;-0.27;93.70
79127;BME280;68528;48.814;8.904;2023-04-21T02:41:57;96015.56;;;-0.26;93.77
79127;BME280;68528;48.814;8.904;2023-04-21T02:44:23;96023.38;;;-0.16;94.61
79127;BME280;68528;48.814;8.904;2023-04-21T02:46:48;96019.88;;;-0.17;94.62
79127;BME280;68528;48.814;8.904;2023-04-21T02:49:13;96014.50;;;-0.17;94.75
79127;BME280;68528;48.814;8.904;2023-04-21T02:51:39;96010.56;;;-0.19;94.36
79127;BME280;68528;48.814;8.904;2023-04-21T02:54:20;95997.88;;;-0.19;94.35
79127;BME280;68528;48.814;8.904;2023-04-21T03:00:08;96009.13;;;-0.17;93.83
79127;BME280;68528;48.814;8.904;2023-04-21T03:02:36;96022.09;;;-0.19;94.47
79127;BME280;68528;48.814;8.904;2023-04-21T03:05:01;96019.03;;;-0.26;94.65
79127;BME280;68528;48.814;8.904;2023-04-21T03:07:26;96015.38;;;-0.30;93.91
79127;BME280;68528;48.814;8.904;2023-04-21T03:09:52;96018.16;;;-0.35;93.78
79127;BME280;68528;48.814;8.904;2023-04-21T03:12:48;96015.47;;;-0.35;93.69
79127;BME280;68528;48.814;8.904;2023-04-21T03:15:47;96012.31;;;-0.37;93.76
79127;BME280;68528;48.814;8.904;2023-04-21T03:18:12;96001.66;;;-0.42;93.59
79127;BME280;68528;48.814;8.904;2023-04-21T03:20:38;95992.50;;;-0.41;93.86
79127;BME280;68528;48.814;8.904;2023-04-21T03:23:03;95987.09;;;-0.41;93.55
79127;BME280;68528;48.814;8.904;2023-04-21T03:25:28;95985.00;;;-0.44;93.81
79127;BME280;68528;48.814;8.904;2023-04-21T03:27:54;95979.16;;;-0.46;93.64
79127;BME280;68528;48.814;8.904;2023-04-21T03:30:48;95991.38;;;-0.40;93.56
79127;BME280;68528;48.814;8.904;2023-04-21T03:37:16;95993.72;;;-0.47;93.13
79127;BME280;68528;48.814;8.904;2023-04-21T03:39:42;95988.44;;;-0.52;93.71
79127;BME280;68528;48.814;8.904;2023-04-21T03:42:07;95989.53;;;-0.53;93.42
79127;BME280;68528;48.814;8.904;2023-04-21T03:44:32;95994.31;;;-0.50;94.06
79127;BME280;68528;48.814;8.904;2023-04-21T03:47:21;95993.72;;;-0.47;93.28
79127;BME280;68528;48.814;8.904;2023-04-21T03:53:24;95988.75;;;-0.53;94.26
79127;BME280;68528;48.814;8.904;2023-04-21T03:55:50;95999.19;;;-0.52;93.92
79127;BME280;68528;48.814;8.904;2023-04-21T03:58:15;95988.84;;;-0.58;93.74
79127;BME280;68528;48.814;8.904;2023-04-21T04:00:41;95988.66;;;-0.62;93.78
79127;BME280;68528;48.814;8.904;2023-04-21T04:03:06;95985.97;;;-0.62;93.52
79127;BME280;68528;48.814;8.904;2023-04-21T04:05:37;95985.25;;;-0.54;94.04
79127;BME280;68528;48.814;8.904;2023-04-21T04:08:24;95983.97;;;-0.56;93.48
79127;BME280;68528;48.814;8.904;2023-04-21T04:10:52;95983.97;;;-0.56;93.57
79127;BME280;68528;48.814;8.904;2023-04-21T04:13:39;95995.03;;;-0.36;93.68
79127;BME280;68528;48.814;8.904;2023-04-21T04:16:05;95977.72;;;-0.30;92.75
79127;BME280;68528;48.814;8.904;2023-04-21T04:18:30;95975.72;;;-0.38;93.20
79127;BME280;68528;48.814;8.904;2023-04-21T04:20:56;95968.88;;;-0.44;93.72
79127;BME280;68528;48.814;8.904;2023-04-21T04:23:21;95963.81;;;-0.45;93.56
79127;BME280;68528;48.814;8.904;2023-04-21T04:32:30;95995.44;;;-0.29;94.42
79127;BME280;68528;48.814;8.904;2023-04-21T04:35:03;95991.44;;;-0.31;94.70
79127;BME280;68528;48.814;8.904;2023-04-21T04:37:28;95981.47;;;-0.31;94.92
79127;BME280;68528;48.814;8.904;2023-04-21T04:39:54;95988.81;;;-0.23;94.86
79127;BME280;68528;48.814;8.904;2023-04-21T04:42:44;95993.59;;;-0.20;94.91
79127;BME280;68528;48.814;8.904;2023-04-21T04:45:48;95994.69;;;-0.21;94.11
79127;BME280;68528;48.814;8.904;2023-04-21T04:48:39;96013.53;;;-0.21;94.65
79127;BME280;68528;48.814;8.904;2023-04-21T04:54:37;96012.31;;;-0.15;94.01
79127;BME280;68528;48.814;8.904;2023-04-21T04:57:06;96006.44;;;-0.17;94.18
79127;BME280;68528;48.814;8.904;2023-04-21T04:59:34;96000.44;;;-0.14;93.94
79127;BME280;68528;48.814;8.904;2023-04-21T05:02:57;96004.78;;;-0.04;94.08
79127;BME280;68528;48.814;8.904;2023-04-21T05:05:45;95999.59;;;-0.01;93.34
79127;BME280;68528;48.814;8.904;2023-04-21T05:08:11;96005.78;;;0.00;93.32
79127;BME280;68528;48.814;8.904;2023-04-21T05:10:37;95998.97;;;0.03;93.88
79127;BME280;68528;48.814;8.904;2023-04-21T05:13:02;96009.00;;;0.11;93.69
79127;BME280;68528;48.814;8.904;2023-04-21T05:15:28;96005.22;;;0.12;94.03
79127;BME280;68528;48.814;8.904;2023-04-21T05:17:53;96011.13;;;0.22;93.76
79127;BME280;68528;48.814;8.904;2023-04-21T05:20:22;96021.22;;;0.39;92.38
79127;BME280;68528;48.814;8.904;2023-04-21T05:23:05;96024.81;;;0.56;91.67
79127;BME280;68528;48.814;8.904;2023-04-21T05:25:52;96031.09;;;0.52;91.60
79127;BME280;68528;48.814;8.904;2023-04-21T05:28:27;96028.53;;;0.47;92.43
79127;BME280;68528;48.814;8.904;2023-04-21T05:30:54;96041.44;;;0.58;93.39
79127;BME280;68528;48.814;8.904;2023-04-21T05:33:19;96032.97;;;0.73;92.42
79127;BME280;68528;48.814;8.904;2023-04-21T05:35:45;96035.69;;;0.82;92.51
79127;BME280;68528;48.814;8.904;2023-04-21T05:38:35;96046.44;;;1.13;91.25
79127;BME280;68528;48.814;8.904;2023-04-21T05:41:26;96041.28;;;1.50;91.55
79127;BME280;68528;48.814;8.904;2023-04-21T05:43:51;96037.19;;;1.79;90.37
79127;BME280;68528;48.814;8.904;2023-04-21T05:46:17;96050.03;;;1.90;90.64
79127;BME280;68528;48.814;8.904;2023-04-21T05:49:11;96056.56;;;2.41;89.19
79127;BME280;68528;48.814;8.904;2023-04-21T05:51:36;96035.41;;;2.51;90.86
79127;BME280;68528;48.814;8.904;2023-04-21T05:54:02;96044.28;;;2.43;91.65
79127;BME280;68528;48.814;8.904;2023-04-21T06:00:23;96049.91;;;2.21;92.59
79127;BME280;68528;48.814;8.904;2023-04-21T06:02:57;96031.47;;;2.06;92.58
79127;BME280;68528;48.814;8.904;2023-04-21T06:05:43;96052.28;;;2.14;92.48
79127;BME280;68528;48.814;8.904;2023-04-21T06:08:08;96048.00;;;2.21;91.60
79127;BME280;68528;48.814;8.904;2023-04-21T06:10:33;96045.41;;;2.42;91.08
79127;BME280;68528;48.814;8.904;2023-04-21T06:12:59;96045.66;;;2.66;89.68
79127;BME280;68528;48.814;8.904;2023-04-21T06:19:30;96026.88;;;2.78;89.26
79127;BME280;68528;48.814;8.904;2023-04-21T06:21:55;96020.19;;;2.84;89.99
79127;BME280;68528;48.814;8.904;2023-04-21T06:24:21;96011.66;;;3.03;89.06
79127;BME280;68528;48.814;8.904;2023-04-21T06:26:58;96011.75;;;3.73;87.36
79127;BME280;68528;48.814;8.904;2023-04-21T06:29:24;96009.59;;;3.99;86.94
79127;BME280;68528;48.814;8.904;2023-04-21T06:31:50;96015.41;;;4.10;86.76
79127;BME280;68528;48.814;8.904;2023-04-21T06:34:39;96025.03;;;4.40;84.71
79127;BME280;68528;48.814;8.904;2023-04-21T06:37:33;96022.09;;;4.13;85.03
79127;BME280;68528;48.814;8.904;2023-04-21T06:39:58;96022.28;;;3.87;87.01
79127;BME280;68528;48.814;8.904;2023-04-21T06:43:00;96020.78;;;3.98;85.97
79127;BME280;68528;48.814;8.904;2023-04-21T06:45:25;96027.25;;;3.85;87.98
79127;BME280;68528;48.814;8.904;2023-04-21T06:47:50;96024.34;;;3.90;87.70
79127;BME280;68528;48.814;8.904;2023-04-21T06:50:22;96021.63;;;4.11;87.45
79127;BME280;68528;48.814;8.904;2023-04-21T06:52:49;96029.72;;;4.31;87.18
79127;BME280;68528;48.814;8.904;2023-04-21T06:55:26;96023.19;;;4.32;87.07
79127;BME280;68528;48.814;8.904;2023-04-21T06:57:53;96010.44;;;4.33;86.81
79127;BME280;68528;48.814;8.904;2023-04-21T07:00:19;96013.09;;;4.53;86.11
79127;BME280;68528;48.814;8.904;2023-04-21T07:02:45;96007.50;;;4.70;85.35
79127;BME280;68528;48.814;8.904;2023-04-21T07:05:10;96011.81;;;5.92;83.06
79127;BME280;68528;48.814;8.904;2023-04-21T07:08:00;95997.50;;;7.91;74.62
79127;BME280;68528;48.814;8.904;2023-04-21T07:10:57;95997.31;;;8.99;71.37
79127;BME280;68528;48.814;8.904;2023-04-21T07:16:32;95997.28;;;10.52;67.29
79127;BME280;68528;48.814;8.904;2023-04-21T07:18:57;95998.56;;;10.95;69.81
79127;BME280;68528;48.814;8.904;2023-04-21T07:21:23;95990.75;;;11.41;62.87
79127;BME280;68528;48.814;8.904;2023-04-21T07:23:53;96000.56;;;11.42;65.74
79127;BME280;68528;48.814;8.904;2023-04-21T07:26:18;96008.44;;;10.70;64.01
79127;BME280;68528;48.814;8.904;2023-04-21T07:28:56;96006.75;;;9.73;68.65
79127;BME280;68528;48.814;8.904;2023-04-21T07:31:23;95995.25;;;9.15;68.98
79127;BME280;68528;48.814;8.904;2023-04-21T07:33:49;96011.66;;;8.73;72.12
79127;BME280;68528;48.814;8.904;2023-04-21T07:36:14;95999.81;;;9.07;70.50
79127;BME280;68528;48.814;8.904;2023-04-21T07:38:41;96005.03;;;9.38;70.25
79127;BME280;68528;48.814;8.904;2023-04-21T07:41:09;96009.03;;;9.97;68.06
79127;BME280;68528;48.814;8.904;2023-04-21T07:43:35;96003.16;;;9.69;68.42
79127;BME280;68528;48.814;8.904;2023-04-21T07:46:00;96007.19;;;8.84;69.00
79127;BME280;68528;48.814;8.904;2023-04-21T07:48:38;96002.00;;;9.43;70.49
79127;BME280;68528;48.814;8.904;2023-04-21T07:54:40;95996.00;;;9.87;68.85
79127;BME280;68528;48.814;8.904;2023-04-21T07:57:27;96000.91;;;9.74;67.73
79127;BME280;68528;48.814;8.904;2023-04-21T08:00:03;96002.34;;;9.42;68.46
79127;BME280;68528;48.814;8.904;2023-04-21T08:02:39;95999.41;;;9.80;68.76
79127;BME280;68528;48.814;8.904;2023-04-21T08:05:47;95998.16;;;9.48;67.45
79127;BME280;68528;48.814;8.904;2023-04-21T08:08:30;95993.06;;;9.73;66.57
79127;BME280;68528;48.814;8.904;2023-04-21T08:10:59;95993.25;;;9.34;68.15
79127;BME280;68528;48.814;8.904;2023-04-21T08:13:24;95990.13;;;9.85;69.28
79127;BME280;68528;48.814;8.904;2023-04-21T08:15:51;95994.03;;;9.84;67.63
79127;BME280;68528;48.814;8.904;2023-04-21T08:18:17;95993.38;;;9.94;68.38
79127;BME280;68528;48.814;8.904;2023-04-21T08:20:43;95975.59;;;10.07;63.42
79127;BME280;68528;48.814;8.904;2023-04-21T08:23:09;95982.75;;;10.15;66.36
79127;BME280;68528;48.814;8.904;2023-04-21T08:25:38;95976.81;;;10.09;64.53
79127;BME280;68528;48.814;8.904;2023-04-21T08:28:04;95973.28;;;10.09;65.49
79127;BME280;68528;48.814;8.904;2023-04-21T08:30:29;95966.59;;;9.80;66.00
79127;BME280;68528;48.814;8.904;2023-04-21T08:32:57;95971.66;;;10.67;63.09
79127;BME280;68528;48.814;8.904;2023-04-21T08:35:24;95973.34;;;10.12;64.53
79127;BME280;68528;48.814;8.904;2023-04-21T08:37:51;95980.13;;;10.22;65.00
79127;BME280;68528;48.814;8.904;2023-04-21T08:40:20;95973.34;;;10.12;64.88
79127;BME280;68528;48.814;8.904;2023-04-21T08:42:49;95964.50;;;10.56;64.73
79127;BME280;68528;48.814;8.904;2023-04-21T08:45:15;95970.56;;;10.42;65.62
79127;BME280;68528;48.814;8.904;2023-04-21T08:47:40;95975.47;;;10.26;64.96
79127;BME280;68528;48.814;8.904;2023-04-21T08:50:12;95960.72;;;11.55;64.92
79127;BME280;68528;48.814;8.904;2023-04-21T08:52:38;95964.19;;;12.06;60.12
79127;BME280;68528;48.814;8.904;2023-04-21T08:55:04;95970.38;;;12.79;60.31
79127;BME280;68528;48.814;8.904;2023-04-21T08:57:31;95971.28;;;12.07;60.04
79127;BME280;68528;48.814;8.904;2023-04-21T08:59:59;95974.19;;;11.27;61.45
79127;BME280;68528;48.814;8.904;2023-04-21T09:02:28;95977.75;;;11.31;62.74
79127;BME280;68528;48.814;8.904;2023-04-21T09:04:53;95972.75;;;10.96;62.51
79127;BME280;68528;48.814;8.904;2023-04-21T09:07:33;95967.75;;;11.56;61.62
79127;BME280;68528;48.814;8.904;2023-04-21T09:09:59;95966.53;;;12.01;61.38
79127;BME280;68528;48.814;8.904;2023-04-21T09:12:25;95962.53;;;12.81;60.71
79127;BME280;68528;48.814;8.904;2023-04-21T09:14:53;95959.84;;;12.98;60.75
79127;BME280;68528;48.814;8.904;2023-04-21T09:17:20;95961.19;;;12.36;60.21
79127;BME280;68528;48.814;8.904;2023-04-21T09:19:46;95958.19;;;12.66;61.59
79127;BME280;68528;48.814;8.904;2023-04-21T09:41:00;95956.75;;;13.63;58.92
79127;BME280;68528;48.814;8.904;2023-04-21T09:43:25;95953.53;;;12.84;59.33
79127;BME280;68528;48.814;8.904;2023-04-21T09:45:53;95952.81;;;13.15;59.24
79127;BME280;68528;48.814;8.904;2023-04-21T09:48:20;95955.09;;;14.11;58.57
79127;BME280;68528;48.814;8.904;2023-04-21T09:50:46;95954.41;;;13.72;58.55
79127;BME280;68528;48.814;8.904;2023-04-21T09:53:14;95957.13;;;13.69;60.02
79127;BME280;68528;48.814;8.904;2023-04-21T09:55:41;95950.06;;;13.85;56.47
79127;BME280;68528;48.814;8.904;2023-04-21T09:58:08;95959.91;;;13.72;60.55
79127;BME280;68528;48.814;8.904;2023-04-21T10:01:01;95938.25;;;13.81;60.79
79127;BME280;68528;48.814;8.904;2023-04-21T10:03:29;95937.00;;;14.32;57.06
79127;BME280;68528;48.814;8.904;2023-04-21T10:05:57;95930.00;;;13.81;59.35
79127;BME280;68528;48.814;8.904;2023-04-21T10:08:22;95914.59;;;14.05;58.81
79127;BME280;68528;48.814;8.904;2023-04-21T10:10:51;95922.16;;;13.69;56.90
79127;BME280;68528;48.814;8.904;2023-04-21T10:13:17;95919.78;;;13.85;57.79
79127;BME280;68528;48.814;8.904;2023-04-21T10:15:44;95922.75;;;14.51;55.15
79127;BME280;68528;48.814;8.904;2023-04-21T10:18:50;95922.56;;;13.64;58.67
79127;BME280;68528;48.814;8.904;2023-04-21T10:21:20;95922.50;;;13.99;57.54
79127;BME280;68528;48.814;8.904;2023-04-21T10:23:47;95928.47;;;13.31;56.88
79127;BME280;68528;48.814;8.904;2023-04-21T10:26:31;95925.31;;;13.08;59.84
79127;BME280;68528;48.814;8.904;2023-04-21T10:29:08;95922.97;;;13.27;61.55
79127;BME280;68528;48.814;8.904;2023-04-21T10:31:38;95926.50;;;13.53;57.38
79127;BME280;68528;48.814;8.904;2023-04-21T10:34:17;95933.19;;;13.66;57.96
79127;BME280;68528;48.814;8.904;2023-04-21T10:42:40;95916.63;;;12.95;59.77
79127;BME280;68528;48.814;8.904;2023-04-21T10:45:07;95908.03;;;13.18;59.24
79127;BME280;68528;48.814;8.904;2023-04-21T10:47:47;95914.72;;;13.27;58.74
79127;BME280;68528;48.814;8.904;2023-04-21T10:50:27;95920.59;;;13.79;57.48
79127;BME280;68528;48.814;8.904;2023-04-21T10:56:24;95908.72;;;13.99;59.46
79127;BME280;68528;48.814;8.904;2023-04-21T10:59:09;95910.78;;;13.53;59.39
79127;BME280;68528;48.814;8.904;2023-04-21T11:11:11;95893.00;;;13.96;59.33
79127;BME280;68528;48.814;8.904;2023-04-21T11:13:45;95900.97;;;13.59;58.43
79127;BME280;68528;48.814;8.904;2023-04-21T11:16:11;95903.66;;;13.73;58.92
79127;BME280;68528;48.814;8.904;2023-04-21T11:18:39;95905.25;;;13.60;59.34
79127;BME280;68528;48.814;8.904;2023-04-21T11:21:13;95913.06;;;13.90;56.57
79127;BME280;68528;48.814;8.904;2023-04-21T11:23:51;95896.97;;;13.81;58.86
79127;BME280;68528;48.814;8.904;2023-04-21T11:26:21;95898.03;;;14.30;59.71
79127;BME280;68528;48.814;8.904;2023-04-21T11:28:54;95904.53;;;14.64;57.50
79127;BME280;68528;48.814;8.904;2023-04-21T11:31:20;95897.50;;;14.56;57.96
79127;BME280;68528;48.814;8.904;2023-04-21T11:34:08;95885.03;;;14.34;57.76
79127;BME280;68528;48.814;8.904;2023-04-21T11:36:37;95885.75;;;14.48;56.90
79127;BME280;68528;48.814;8.904;2023-04-21T11:39:07;95897.59;;;14.38;57.89
79127;BME280;68528;48.814;8.904;2023-04-21T11:41:34;95883.31;;;14.61;56.54
79127;BME280;68528;48.814;8.904;2023-04-21T11:44:00;95879.22;;;14.86;57.20
79127;BME280;68528;48.814;8.904;2023-04-21T11:46:27;95895.22;;;14.44;58.85
79127;BME280;68528;48.814;8.904;2023-04-21T11:49:14;95879.09;;;14.42;57.39
79127;BME280;68528;48.814;8.904;2023-04-21T11:51:42;95893.97;;;14.55;57.02
79127;BME280;68528;48.814;8.904;2023-04-21T11:54:12;95885.06;;;14.19;58.93
79127;BME280;68528;48.814;8.904;2023-04-21T11:56:42;95889.78;;;14.30;57.02
79127;BME280;68528;48.814;8.904;2023-04-21T11:59:15;95883.44;;;14.33;57.67
79127;BME280;68528;48.814;8.904;2023-04-21T12:01:49;95879.19;;;14.90;56.67
79127;BME280;68528;48.814;8.904;2023-04-21T12:04:16;95886.56;;;14.42;57.86
79127;BME280;68528;48.814;8.904;2023-04-21T12:06:42;95875.81;;;14.65;57.74
79127;BME280;68528;48.814;8.904;2023-04-21T12:09:15;95874.03;;;14.95;58.00
79127;BME280;68528;48.814;8.904;2023-04-21T12:11:41;95870.78;;;15.11;55.81
79127;BME280;68528;48.814;8.904;2023-04-21T12:14:07;95866.25;;;15.31;54.87
79127;BME280;68528;48.814;8.904;2023-04-21T12:16:32;95859.66;;;15.22;55.20
79127;BME280;68528;48.814;8.904;2023-04-21T12:19:01;95852.16;;;15.22;55.56
79127;BME280;68528;48.814;8.904;2023-04-21T12:21:27;95847.25;;;15.47;54.90
79127;BME280;68528;48.814;8.904;2023-04-21T12:23:52;95848.72;;;15.55;54.49
79127;BME280;68528;48.814;8.904;2023-04-21T12:26:18;95862.81;;;14.65;56.00
79127;BME280;68528;48.814;8.904;2023-04-21T12:28:43;95858.53;;;14.57;57.15
79127;BME280;68528;48.814;8.904;2023-04-21T12:31:09;95848.44;;;14.95;56.54
79127;BME280;68528;48.814;8.904;2023-04-21T12:33:34;95855.66;;;14.75;56.80
79127;BME280;68528;48.814;8.904;2023-04-21T12:36:00;95850.50;;;14.80;56.27
79127;BME280;68528;48.814;8.904;2023-04-21T12:38:25;95847.41;;;15.23;55.52
79127;BME280;68528;48.814;8.904;2023-04-21T12:41:12;95854.00;;;14.88;57.98
79127;BME280;68528;48.814;8.904;2023-04-21T12:43:38;95848.28;;;15.16;56.05
79127;BME280;68528;48.814;8.904;2023-04-21T12:46:03;95850.22;;;14.64;57.19
79127;BME280;68528;48.814;8.904;2023-04-21T12:48:29;95849.25;;;14.92;56.80
79127;BME280;68528;48.814;8.904;2023-04-21T12:50:55;95843.53;;;15.17;56.60
79127;BME280;68528;48.814;8.904;2023-04-21T12:53:21;95842.53;;;14.97;56.28
79127;BME280;68528;48.814;8.904;2023-04-21T12:55:47;95838.44;;;15.59;56.14
79127;BME280;68528;48.814;8.904;2023-04-21T12:58:12;95834.88;;;15.62;54.00
79127;BME280;68528;48.814;8.904;2023-04-21T13:00:50;95836.84;;;15.18;55.36
79127;BME280;68528;48.814;8.904;2023-04-21T13:03:39;95841.72;;;15.44;55.11
79127;BME280;68528;48.814;8.904;2023-04-21T13:06:04;95829.78;;;15.13;55.03
79127;BME280;68528;48.814;8.904;2023-04-21T13:08:30;95828.88;;;15.71;53.12
79127;BME280;68528;48.814;8.904;2023-04-21T13:10:57;95840.00;;;15.60;53.58
79127;BME280;68528;48.814;8.904;2023-04-21T13:13:23;95835.94;;;15.72;53.28
79127;BME280;68528;48.814;8.904;2023-04-21T13:15:48;95840.66;;;15.31;54.51
79127;BME280;68528;48.814;8.904;2023-04-21T13:18:14;95834.19;;;15.51;53.83
79127;BME280;68528;48.814;8.904;2023-04-21T13:20:40;95832.16;;;15.93;54.67
79127;BME280;68528;48.814;8.904;2023-04-21T13:23:05;95834.91;;;15.93;52.67
79127;BME280;68528;48.814;8.904;2023-04-21T13:25:33;95826.50;;;15.69;53.19
79127;BME280;68528;48.814;8.904;2023-04-21T13:27:58;95827.19;;;15.43;54.53
79127;BME280;68528;48.814;8.904;2023-04-21T13:30:23;95824.31;;;15.50;53.34
79127;BME280;68528;48.814;8.904;2023-04-21T13:32:49;95821.81;;;15.66;53.50
79127;BME280;68528;48.814;8.904;2023-04-21T13:35:34;95824.38;;;15.47;52.42
79127;BME280;68528;48.814;8.904;2023-04-21T13:38:00;95829.63;;;15.71;52.86
79127;BME280;68528;48.814;8.904;2023-04-21T13:40:46;95822.78;;;15.49;53.60
79127;BME280;68528;48.814;8.904;2023-04-21T13:43:15;95824.84;;;15.76;52.84
79127;BME280;68528;48.814;8.904;2023-04-21T13:45:40;95812.94;;;16.16;50.98
79127;BME280;68528;48.814;8.904;2023-04-21T13:48:06;95819.84;;;16.31;51.35
79127;BME280;68528;48.814;8.904;2023-04-21T13:50:33;95815.59;;;16.23;51.72
79127;BME280;68528;48.814;8.904;2023-04-21T13:52:59;95804.00;;;16.05;52.37
79127;BME280;68528;48.814;8.904;2023-04-21T13:55:25;95806.47;;;15.96;51.50
79127;BME280;68528;48.814;8.904;2023-04-21T13:57:53;95806.03;;;16.01;51.07
79127;BME280;68528;48.814;8.904;2023-04-21T14:00:28;95804.56;;;16.23;51.30
79127;BME280;68528;48.814;8.904;2023-04-21T14:02:54;95798.81;;;16.10;51.21
79127;BME280;68528;48.814;8.904;2023-04-21T14:05:20;95795.50;;;15.89;52.04
79127;BME280;68528;48.814;8.904;2023-04-21T14:07:45;95793.13;;;15.91;52.53
79127;BME280;68528;48.814;8.904;2023-04-21T14:10:10;95783.59;;;15.95;52.43
79127;BME280;68528;48.814;8.904;2023-04-21T14:12:37;95780.16;;;16.18;51.10
79127;BME280;68528;48.814;8.904;2023-04-21T14:15:05;95775.59;;;16.04;51.41
79127;BME280;68528;48.814;8.904;2023-04-21T14:17:32;95768.56;;;16.30;51.41
79127;BME280;68528;48.814;8.904;2023-04-21T14:19:57;95750.03;;;16.27;50.53
79127;BME280;68528;48.814;8.904;2023-04-21T14:22:22;95762.44;;;16.42;50.26
79127;BME280;68528;48.814;8.904;2023-04-21T14:24:48;95761.28;;;16.13;49.43
79127;BME280;68528;48.814;8.904;2023-04-21T14:27:14;95749.31;;;15.93;51.00
79127;BME280;68528;48.814;8.904;2023-04-21T14:29:40;95745.94;;;15.78;51.71
79127;BME280;68528;48.814;8.904;2023-04-21T14:32:05;95751.41;;;16.15;51.36
79127;BME280;68528;48.814;8.904;2023-04-21T14:34:30;95748.63;;;16.15;49.32
79127;BME280;68528;48.814;8.904;2023-04-21T14:36:56;95750.25;;;16.13;49.67
79127;BME280;68528;48.814;8.904;2023-04-21T14:39:21;95739.97;;;16.13;49.43
79127;BME280;68528;48.814;8.904;2023-04-21T14:41:59;95745.91;;;16.12;50.80
79127;BME280;68528;48.814;8.904;2023-04-21T14:44:26;95747.22;;;16.30;48.94
79127;BME280;68528;48.814;8.904;2023-04-21T14:46:52;95740.81;;;16.37;48.58
79127;BME280;68528;48.814;8.904;2023-04-21T14:49:17;95735.91;;;16.21;48.81
79127;BME280;68528;48.814;8.904;2023-04-21T14:51:43;95734.88;;;16.65;47.80
79127;BME280;68528;48.814;8.904;2023-04-21T14:54:29;95750.88;;;16.77;48.93